Time;durP1;ratioP1;P1;durP2;ratioP2;P2;SDS_P1;SDS_P2;PMS_P1;PMS_P2;Temp;Humidity;BMP_temperature;BMP_pressure;BME280_temperature;BME280_humidity;BME280_pressure;Samples;Min_cycle;Max_cycle;Signal;HPM_P1;HPM_P2
2022/06/16 00:00:50;;;;;;;;;9.50;9.50;;;;;;;;4979666;28;45548;-66
2022/06/16 00:03:16;;;;;;;;;9.75;9.75;;;;;;;;4982081;28;45541;-66
2022/06/16 00:05:42;;;;;;;;;9.75;9.25;;;;;;;;4984817;28;47722;-67
2022/06/16 00:08:09;;;;;;;;;11.75;9.25;;;;;;;;4979014;28;45902;-66
2022/06/16 00:10:34;;;;;;;;;9.75;9.75;;;;;;;;4988686;28;45891;-67
2022/06/16 00:13:00;;;;;;;;;9.50;8.50;;;;;;;;4978627;28;45414;-66
2022/06/16 00:15:27;;;;;;;;;11.00;10.00;;;;;;;;4986065;28;46580;-66
2022/06/16 00:17:53;;;;;;;;;12.50;10.50;;;;;;;;4983468;28;45526;-66
2022/06/16 00:20:18;;;;;;;;;10.50;10.25;;;;;;;;4981980;28;45470;-67
2022/06/16 00:22:43;;;;;;;;;11.50;8.75;;;;;;;;4987284;28;45770;-67
2022/06/16 00:25:09;;;;;;;;;10.75;10.75;;;;;;;;4981508;28;45964;-66
2022/06/16 00:27:34;;;;;;;;;11.25;11.25;;;;;;;;4985779;28;45487;-66
2022/06/16 00:30:00;;;;;;;;;10.25;10.00;;;;;;;;4980925;28;45598;-65
2022/06/16 00:32:25;;;;;;;;;11.00;11.00;;;;;;;;4980821;28;45916;-65
2022/06/16 00:34:51;;;;;;;;;11.00;9.00;;;;;;;;4986107;28;45712;-66
2022/06/16 00:37:16;;;;;;;;;11.25;11.00;;;;;;;;4983320;28;45530;-67
2022/06/16 00:39:42;;;;;;;;;10.00;10.00;;;;;;;;4986109;28;45552;-65
2022/06/16 00:42:13;;;;;;;;;11.00;10.75;;;;;;;;4981970;28;45901;-66
2022/06/16 00:44:45;;;;;;;;;11.00;9.75;;;;;;;;4983292;28;45548;-66
2022/06/16 00:47:11;;;;;;;;;10.50;10.50;;;;;;;;4987103;28;45537;-67
2022/06/16 00:49:38;;;;;;;;;9.00;9.00;;;;;;;;4979607;28;46147;-67
2022/06/16 00:52:10;;;;;;;;;10.25;10.25;;;;;;;;4988625;28;45893;-66
2022/06/16 00:55:02;;;;;;;;;9.25;8.25;;;;;;;;4977135;28;45962;-67
2022/06/16 00:57:35;;;;;;;;;11.00;11.00;;;;;;;;4958096;28;45843;-67
2022/06/16 01:00:01;;;;;;;;;12.50;12.50;;;;;;;;4954490;28;45618;-67
2022/06/16 01:02:26;;;;;;;;;10.00;10.00;;;;;;;;4938494;28;45650;-67
2022/06/16 01:04:51;;;;;;;;;12.25;12.00;;;;;;;;4947065;28;48602;-67
2022/06/16 01:07:19;;;;;;;;;13.00;13.00;;;;;;;;4939411;28;45995;-66
2022/06/16 01:09:44;;;;;;;;;10.50;10.50;;;;;;;;4955756;28;45478;-65
2022/06/16 01:15:30;;;;;;;;;10.75;10.75;;;;;;;;4950609;28;45794;-66
2022/06/16 01:18:02;;;;;;;;;11.75;10.50;;;;;;;;4953935;28;45474;-67
2022/06/16 01:20:44;;;;;;;;;12.50;10.75;;;;;;;;4938858;28;45660;-66
2022/06/16 01:23:47;;;;;;;;;9.75;8.50;;;;;;;;4935466;28;45702;-68
2022/06/16 01:26:32;;;;;;;;;12.75;11.50;;;;;;;;4859715;29;48882;-66
2022/06/16 01:29:10;;;;;;;;;13.00;10.50;;;;;;;;4839274;29;45492;-66
2022/06/16 01:31:49;;;;;;;;;10.25;10.00;;;;;;;;4847558;29;45545;-66
2022/06/16 01:34:22;;;;;;;;;11.00;11.00;;;;;;;;4849559;29;45445;-66
2022/06/16 01:36:54;;;;;;;;;16.00;16.00;;;;;;;;4873586;29;45515;-66
2022/06/16 01:39:25;;;;;;;;;13.25;11.00;;;;;;;;4867276;29;45426;-66
2022/06/16 01:41:54;;;;;;;;;11.50;11.50;;;;;;;;4868778;29;45610;-65
2022/06/16 01:44:24;;;;;;;;;11.50;11.50;;;;;;;;4885827;28;45746;-66
2022/06/16 01:46:54;;;;;;;;;8.25;8.25;;;;;;;;4874892;29;45850;-66
2022/06/16 01:49:23;;;;;;;;;12.25;12.25;;;;;;;;4872392;29;45807;-68
2022/06/16 01:52:00;;;;;;;;;9.50;9.50;;;;;;;;4869343;29;45769;-64
2022/06/16 01:54:29;;;;;;;;;13.50;12.25;;;;;;;;4876195;29;46057;-66
2022/06/16 01:57:15;;;;;;;;;10.00;9.00;;;;;;;;4939243;28;47768;-66
2022/06/16 01:59:45;;;;;;;;;10.25;9.75;;;;;;;;4984967;28;45569;-68
2022/06/16 02:02:12;;;;;;;;;14.50;13.50;;;;;;;;4980811;28;45569;-67
2022/06/16 02:04:41;;;;;;;;;12.00;10.25;;;;;;;;4988889;28;45418;-66
2022/06/16 02:07:10;;;;;;;;;12.25;11.50;;;;;;;;4993217;28;48489;-66
2022/06/16 02:09:39;;;;;;;;;15.75;12.50;;;;;;;;4987039;28;45473;-67
2022/06/16 02:12:07;;;;;;;;;7.00;6.50;;;;;;;;4983094;28;45633;-66
2022/06/16 02:14:42;;;;;;;;;11.75;11.00;;;;;;;;4982288;28;45583;-66
2022/06/16 02:17:08;;;;;;;;;15.25;15.25;;;;;;;;4988898;28;45527;-66
2022/06/16 02:19:34;;;;;;;;;12.50;12.50;;;;;;;;4981769;28;45466;-65
2022/06/16 02:22:01;;;;;;;;;13.25;12.50;;;;;;;;4989136;28;45442;-67
2022/06/16 02:24:27;;;;;;;;;13.25;13.25;;;;;;;;4978940;28;45570;-65
2022/06/16 02:26:54;;;;;;;;;13.75;11.75;;;;;;;;4985183;28;48587;-65
2022/06/16 02:29:19;;;;;;;;;12.00;12.00;;;;;;;;4977681;28;45483;-67
2022/06/16 02:32:03;;;;;;;;;15.00;12.75;;;;;;;;4980027;28;45430;-66
2022/06/16 02:34:28;;;;;;;;;12.75;12.50;;;;;;;;4984722;28;45472;-65
2022/06/16 02:37:01;;;;;;;;;12.00;12.00;;;;;;;;4980656;28;45491;-65
2022/06/16 02:39:26;;;;;;;;;13.50;12.50;;;;;;;;4997298;28;45819;-66
2022/06/16 02:41:54;;;;;;;;;12.75;11.50;;;;;;;;4995487;28;45623;-66
2022/06/16 02:44:25;;;;;;;;;13.50;12.25;;;;;;;;4983480;28;45724;-66
2022/06/16 02:47:08;;;;;;;;;14.25;14.25;;;;;;;;4986428;28;45777;-65
2022/06/16 02:49:33;;;;;;;;;13.50;12.50;;;;;;;;4980513;28;45591;-65
2022/06/16 02:51:59;;;;;;;;;13.25;11.25;;;;;;;;4986580;28;45557;-65
2022/06/16 02:54:24;;;;;;;;;12.75;12.75;;;;;;;;4989798;28;45617;-65
2022/06/16 02:56:55;;;;;;;;;11.25;11.00;;;;;;;;4985451;28;45523;-66
2022/06/16 02:59:26;;;;;;;;;15.75;15.75;;;;;;;;4999430;28;45661;-66
2022/06/16 03:01:53;;;;;;;;;14.25;12.00;;;;;;;;4979134;28;45824;-66
2022/06/16 03:04:18;;;;;;;;;13.00;12.00;;;;;;;;4976500;28;46035;-65
2022/06/16 03:06:44;;;;;;;;;16.25;14.25;;;;;;;;4981021;28;48587;-66
2022/06/16 03:09:10;;;;;;;;;13.75;13.75;;;;;;;;4981842;28;45564;-66
2022/06/16 03:11:36;;;;;;;;;15.00;13.25;;;;;;;;4976061;28;46578;-66
2022/06/16 03:14:01;;;;;;;;;16.00;13.50;;;;;;;;5005443;28;45613;-66
2022/06/16 03:16:27;;;;;;;;;16.50;15.50;;;;;;;;4975895;28;46254;-66
2022/06/16 03:18:52;;;;;;;;;14.25;14.25;;;;;;;;4977719;28;45558;-64
2022/06/16 03:21:18;;;;;;;;;8.50;8.25;;;;;;;;4977211;28;45490;-66
2022/06/16 03:23:43;;;;;;;;;14.50;14.50;;;;;;;;4975789;28;45462;-65
2022/06/16 03:26:08;;;;;;;;;16.75;14.50;;;;;;;;4975110;28;46465;-66
2022/06/16 03:28:33;;;;;;;;;18.25;17.25;;;;;;;;4974915;28;45737;-65
2022/06/16 03:30:59;;;;;;;;;14.25;14.25;;;;;;;;4978061;28;45359;-66
2022/06/16 03:33:24;;;;;;;;;16.00;14.25;;;;;;;;4975807;28;45614;-66
2022/06/16 03:35:49;;;;;;;;;16.00;16.00;;;;;;;;4976881;28;45607;-65
2022/06/16 03:40:46;;;;;;;;;17.75;14.50;;;;;;;;4972818;28;45419;-65
2022/06/16 03:43:12;;;;;;;;;17.75;16.50;;;;;;;;5009443;28;45556;-64
2022/06/16 03:45:37;;;;;;;;;14.75;14.75;;;;;;;;4972757;28;46092;-65
2022/06/16 03:48:03;;;;;;;;;18.00;17.00;;;;;;;;4972924;28;45402;-64
2022/06/16 03:50:29;;;;;;;;;17.75;17.75;;;;;;;;4971216;28;45581;-65
2022/06/16 03:52:54;;;;;;;;;14.75;14.75;;;;;;;;4971242;28;45527;-65
2022/06/16 03:55:19;;;;;;;;;19.50;18.25;;;;;;;;4971522;28;48489;-67
2022/06/16 03:57:45;;;;;;;;;12.75;12.75;;;;;;;;4972316;28;45567;-66
2022/06/16 04:00:11;;;;;;;;;17.75;17.25;;;;;;;;4972302;28;45910;-65
2022/06/16 04:02:36;;;;;;;;;13.50;13.50;;;;;;;;4972364;28;45923;-66
2022/06/16 04:05:02;;;;;;;;;12.00;12.00;;;;;;;;4970233;28;48586;-66
2022/06/16 04:07:28;;;;;;;;;19.50;18.75;;;;;;;;4972326;28;45854;-66
2022/06/16 04:09:54;;;;;;;;;16.50;15.25;;;;;;;;4987072;28;45446;-65
2022/06/16 04:12:19;;;;;;;;;16.00;16.00;;;;;;;;4970133;28;45478;-67
2022/06/16 04:14:44;;;;;;;;;16.25;16.00;;;;;;;;4971733;28;46321;-64
2022/06/16 04:17:09;;;;;;;;;17.00;15.00;;;;;;;;4972238;28;45533;-65
2022/06/16 04:19:35;;;;;;;;;12.50;12.50;;;;;;;;4970792;28;45514;-65
2022/06/16 04:22:00;;;;;;;;;22.50;22.00;;;;;;;;5003612;28;45581;-66
2022/06/16 04:24:25;;;;;;;;;19.00;17.00;;;;;;;;4971906;28;45538;-65
2022/06/16 04:26:51;;;;;;;;;20.50;17.50;;;;;;;;4971914;28;45475;-66
2022/06/16 04:29:17;;;;;;;;;16.00;14.50;;;;;;;;4970676;28;45623;-66
2022/06/16 04:31:42;;;;;;;;;11.75;11.75;;;;;;;;4971900;28;45689;-63
2022/06/16 04:34:09;;;;;;;;;17.75;16.75;;;;;;;;5003556;28;47699;-66
2022/06/16 04:36:34;;;;;;;;;13.25;12.50;;;;;;;;4970258;28;45565;-66
2022/06/16 04:39:00;;;;;;;;;15.75;14.50;;;;;;;;4971914;28;45465;-65
2022/06/16 04:41:25;;;;;;;;;16.50;14.75;;;;;;;;4971862;28;45907;-65
2022/06/16 04:43:51;;;;;;;;;13.25;13.25;;;;;;;;4971640;28;45663;-66
2022/06/16 04:46:17;;;;;;;;;13.00;12.00;;;;;;;;4971004;28;45533;-65
2022/06/16 04:48:43;;;;;;;;;17.25;13.25;;;;;;;;4971703;28;45506;-66
2022/06/16 04:51:09;;;;;;;;;14.25;14.00;;;;;;;;4971595;28;45479;-65
2022/06/16 04:53:35;;;;;;;;;19.75;18.75;;;;;;;;4970065;28;47798;-67
2022/06/16 04:56:01;;;;;;;;;16.00;15.00;;;;;;;;4970087;28;45436;-65
2022/06/16 04:58:27;;;;;;;;;16.25;16.25;;;;;;;;4970550;28;45834;-66
2022/06/16 05:00:53;;;;;;;;;12.00;12.00;;;;;;;;4972115;28;45562;-66
2022/06/16 05:03:18;;;;;;;;;18.75;18.75;;;;;;;;5002959;28;48604;-65
2022/06/16 05:05:44;;;;;;;;;13.75;13.75;;;;;;;;4970324;28;46326;-66
2022/06/16 05:08:10;;;;;;;;;17.25;16.25;;;;;;;;4971718;28;46082;-65
2022/06/16 05:10:35;;;;;;;;;14.75;14.75;;;;;;;;4971918;28;45654;-64
2022/06/16 05:13:00;;;;;;;;;12.25;12.25;;;;;;;;4971892;28;46207;-64
2022/06/16 05:15:25;;;;;;;;;16.00;14.25;;;;;;;;4971667;28;45656;-65
2022/06/16 05:17:50;;;;;;;;;17.00;17.00;;;;;;;;4972430;28;45645;-66
2022/06/16 05:20:16;;;;;;;;;18.50;18.50;;;;;;;;4973682;28;45869;-65
2022/06/16 05:22:41;;;;;;;;;20.00;16.25;;;;;;;;4974728;28;45614;-67
2022/06/16 05:25:06;;;;;;;;;15.50;13.75;;;;;;;;4975446;28;45478;-67
2022/06/16 05:27:31;;;;;;;;;17.75;17.75;;;;;;;;4970955;28;46066;-67
2022/06/16 05:29:57;;;;;;;;;18.50;18.00;;;;;;;;4971245;28;45516;-65
2022/06/16 05:32:22;;;;;;;;;18.50;16.75;;;;;;;;4956082;28;46397;-66
2022/06/16 05:34:47;;;;;;;;;19.25;18.25;;;;;;;;4969567;28;45344;-66
2022/06/16 05:37:12;;;;;;;;;17.75;17.25;;;;;;;;4973407;28;45446;-66
2022/06/16 05:39:39;;;;;;;;;18.75;18.75;;;;;;;;4965561;28;45493;-65
2022/06/16 05:42:04;;;;;;;;;18.00;17.75;;;;;;;;4966497;28;47203;-67
2022/06/16 05:44:29;;;;;;;;;18.00;16.75;;;;;;;;4974027;28;45743;-66
2022/06/16 05:46:54;;;;;;;;;17.25;16.50;;;;;;;;4977261;28;45481;-65
2022/06/16 05:49:21;;;;;;;;;17.50;16.75;;;;;;;;4976162;28;45498;-65
2022/06/16 05:51:47;;;;;;;;;19.75;18.50;;;;;;;;4975548;28;46594;-66
2022/06/16 05:54:12;;;;;;;;;19.50;18.25;;;;;;;;4973065;28;45698;-65
2022/06/16 05:56:37;;;;;;;;;17.00;17.00;;;;;;;;4978030;28;46376;-65
2022/06/16 05:59:02;;;;;;;;;18.50;16.00;;;;;;;;5006619;28;45489;-65
2022/06/16 06:01:27;;;;;;;;;21.00;18.25;;;;;;;;4977296;28;45545;-66
2022/06/16 06:03:53;;;;;;;;;19.25;18.50;;;;;;;;4977267;28;46160;-66
2022/06/16 06:06:18;;;;;;;;;19.75;19.25;;;;;;;;4972895;28;45460;-67
2022/06/16 06:16:59;;;;;;;;;18.25;14.00;;;;;;;;4977797;28;45527;-67
2022/06/16 06:19:25;;;;;;;;;18.50;18.50;;;;;;;;4978108;28;45470;-66
2022/06/16 06:22:11;;;;;;;;;17.75;17.75;;;;;;;;4974049;28;45743;-66
2022/06/16 06:24:39;;;;;;;;;20.75;20.75;;;;;;;;4957827;28;45962;-65
2022/06/16 06:27:12;;;;;;;;;20.75;20.75;;;;;;;;4974283;28;45446;-65
2022/06/16 06:29:38;;;;;;;;;20.00;19.75;;;;;;;;4974531;28;46001;-66
2022/06/16 06:32:03;;;;;;;;;17.00;15.75;;;;;;;;4972869;28;46581;-66
2022/06/16 06:34:29;;;;;;;;;19.00;17.00;;;;;;;;4973425;28;45533;-66
2022/06/16 06:36:54;;;;;;;;;20.00;20.00;;;;;;;;4973658;28;45541;-65
2022/06/16 06:39:21;;;;;;;;;20.50;20.25;;;;;;;;4974155;28;45991;-65
2022/06/16 06:41:47;;;;;;;;;16.50;16.50;;;;;;;;4973565;28;46370;-66
2022/06/16 06:44:12;;;;;;;;;14.75;13.75;;;;;;;;4988671;28;46417;-65
2022/06/16 06:46:37;;;;;;;;;21.50;21.50;;;;;;;;4973449;28;45584;-66
2022/06/16 06:49:03;;;;;;;;;16.00;14.75;;;;;;;;4973796;28;45439;-64
2022/06/16 06:51:29;;;;;;;;;14.25;14.25;;;;;;;;4973840;28;45754;-66
2022/06/16 06:53:54;;;;;;;;;15.25;15.25;;;;;;;;4973759;28;45507;-65
2022/06/16 06:56:19;;;;;;;;;15.00;13.75;;;;;;;;5005247;28;45339;-65
2022/06/16 06:58:45;;;;;;;;;19.75;19.00;;;;;;;;4973269;28;45401;-65
2022/06/16 07:01:10;;;;;;;;;12.25;12.25;;;;;;;;4973054;28;45814;-65
2022/06/16 07:03:35;;;;;;;;;17.50;14.50;;;;;;;;4971974;28;45633;-66
2022/06/16 07:06:01;;;;;;;;;16.75;14.25;;;;;;;;4972067;28;45662;-65
2022/06/16 07:08:27;;;;;;;;;17.50;16.00;;;;;;;;4973842;28;45582;-65
2022/06/16 07:10:52;;;;;;;;;14.25;13.25;;;;;;;;4972761;28;45493;-65
2022/06/16 07:13:17;;;;;;;;;14.25;14.00;;;;;;;;4971677;28;45962;-65
2022/06/16 07:15:42;;;;;;;;;15.00;15.00;;;;;;;;5004702;28;45473;-66
2022/06/16 07:18:08;;;;;;;;;12.00;12.00;;;;;;;;4971609;28;45499;-65
2022/06/16 07:20:33;;;;;;;;;13.75;12.50;;;;;;;;4973669;28;45482;-65
2022/06/16 07:22:59;;;;;;;;;14.75;12.75;;;;;;;;4973254;28;45411;-65
2022/06/16 07:25:24;;;;;;;;;12.25;12.25;;;;;;;;5004583;28;45566;-64
2022/06/16 07:27:50;;;;;;;;;13.50;12.00;;;;;;;;4973193;28;45438;-65
2022/06/16 07:30:16;;;;;;;;;10.50;10.50;;;;;;;;4971646;28;48736;-66
2022/06/16 07:32:42;;;;;;;;;11.75;10.25;;;;;;;;4973472;28;45399;-66
2022/06/16 07:35:08;;;;;;;;;6.75;5.75;;;;;;;;5004115;28;45429;-66
2022/06/16 07:37:34;;;;;;;;;12.25;10.75;;;;;;;;4970811;28;45598;-65
2022/06/16 07:39:59;;;;;;;;;12.00;12.00;;;;;;;;4971808;28;45794;-65
2022/06/16 07:42:25;;;;;;;;;9.25;9.25;;;;;;;;4972163;28;45391;-65
2022/06/16 07:44:51;;;;;;;;;10.75;8.00;;;;;;;;4973218;28;45467;-65
2022/06/16 07:47:16;;;;;;;;;9.25;9.25;;;;;;;;4972787;28;45638;-65
2022/06/16 07:49:43;;;;;;;;;10.25;10.25;;;;;;;;4972414;28;46385;-65
2022/06/16 07:52:08;;;;;;;;;9.75;9.75;;;;;;;;5003960;28;45555;-66
2022/06/16 07:54:33;;;;;;;;;12.00;8.25;;;;;;;;4972591;28;45356;-65
2022/06/16 07:56:58;;;;;;;;;8.25;7.25;;;;;;;;4971475;28;45532;-66
2022/06/16 07:59:24;;;;;;;;;9.25;9.25;;;;;;;;4969132;28;47696;-66
2022/06/16 08:01:49;;;;;;;;;10.00;8.00;;;;;;;;4972432;28;45570;-65
2022/06/16 08:04:15;;;;;;;;;13.25;12.00;;;;;;;;4972271;28;45459;-65
2022/06/16 08:06:41;;;;;;;;;7.75;7.75;;;;;;;;4972455;28;45520;-64
2022/06/16 08:09:07;;;;;;;;;6.00;6.00;;;;;;;;4972369;28;46015;-66
2022/06/16 08:14:17;;;;;;;;;7.25;7.25;;;;;;;;4971984;28;45561;-65
2022/06/16 08:16:42;;;;;;;;;7.00;7.00;;;;;;;;4970398;28;45723;-65
2022/06/16 08:19:08;;;;;;;;;10.75;10.75;;;;;;;;4970930;28;47483;-66
2022/06/16 08:21:33;;;;;;;;;8.75;6.25;;;;;;;;4972657;28;45920;-65
2022/06/16 08:23:58;;;;;;;;;6.75;6.75;;;;;;;;4972536;28;45439;-66
2022/06/16 08:26:23;;;;;;;;;9.25;8.00;;;;;;;;4972891;28;45749;-64
2022/06/16 08:28:50;;;;;;;;;9.50;9.50;;;;;;;;4972316;28;45581;-63
2022/06/16 08:31:17;;;;;;;;;7.00;7.00;;;;;;;;4971979;28;45966;-64
2022/06/16 08:33:43;;;;;;;;;7.00;7.00;;;;;;;;4972061;28;45410;-64
2022/06/16 08:36:08;;;;;;;;;9.25;9.00;;;;;;;;4970667;28;45495;-65
2022/06/16 08:38:33;;;;;;;;;6.00;6.00;;;;;;;;4972242;28;46600;-65
2022/06/16 08:41:15;;;;;;;;;7.00;7.00;;;;;;;;4970805;28;45360;-65
2022/06/16 08:44:00;;;;;;;;;10.50;8.25;;;;;;;;4969434;28;45933;-65
2022/06/16 08:46:32;;;;;;;;;8.00;6.00;;;;;;;;4971750;28;45552;-65
2022/06/16 08:49:24;;;;;;;;;6.75;6.75;;;;;;;;4970405;28;46791;-65
2022/06/16 08:52:01;;;;;;;;;9.25;6.00;;;;;;;;5001654;28;46343;-65
2022/06/16 08:54:34;;;;;;;;;6.00;6.00;;;;;;;;4955975;28;45606;-65
2022/06/16 08:57:05;;;;;;;;;4.25;4.25;;;;;;;;4970725;28;45459;-65
2022/06/16 08:59:41;;;;;;;;;5.50;5.50;;;;;;;;4970904;28;45985;-65
2022/06/16 09:02:32;;;;;;;;;5.75;4.25;;;;;;;;4970594;28;45707;-65
2022/06/16 09:05:05;;;;;;;;;6.00;6.00;;;;;;;;4970625;28;45419;-65
2022/06/16 09:07:33;;;;;;;;;8.25;7.00;;;;;;;;4970321;28;45383;-66
2022/06/16 09:10:15;;;;;;;;;6.75;6.75;;;;;;;;4970303;28;46679;-65
2022/06/16 09:12:42;;;;;;;;;5.75;4.25;;;;;;;;4970380;28;45557;-66
2022/06/16 09:15:14;;;;;;;;;7.00;4.50;;;;;;;;4968814;28;45573;-65
2022/06/16 09:17:45;;;;;;;;;7.00;6.00;;;;;;;;4971002;28;45678;-64
2022/06/16 09:20:14;;;;;;;;;4.25;4.25;;;;;;;;4969984;28;46238;-66
2022/06/16 09:22:39;;;;;;;;;5.00;5.00;;;;;;;;4968680;28;45573;-65
2022/06/16 09:25:18;;;;;;;;;5.00;5.00;;;;;;;;4970469;28;45744;-65
2022/06/16 09:27:50;;;;;;;;;3.75;3.75;;;;;;;;4970512;28;46018;-65
2022/06/16 09:30:21;;;;;;;;;5.75;5.75;;;;;;;;4968837;28;46523;-65
2022/06/16 09:33:05;;;;;;;;;6.00;4.75;;;;;;;;4970662;28;45710;-66
2022/06/16 09:35:40;;;;;;;;;5.50;4.00;;;;;;;;4970295;28;45502;-65
2022/06/16 09:38:20;;;;;;;;;6.00;4.50;;;;;;;;4968687;28;45484;-67
2022/06/16 09:40:51;;;;;;;;;5.00;5.00;;;;;;;;4969861;28;46282;-67
2022/06/16 09:43:36;;;;;;;;;6.00;6.00;;;;;;;;4969940;28;45897;-66
2022/06/16 09:46:35;;;;;;;;;5.00;3.25;;;;;;;;4969846;28;45699;-66
2022/06/16 09:49:05;;;;;;;;;5.25;5.25;;;;;;;;4981666;28;45476;-68
2022/06/16 09:51:36;;;;;;;;;7.25;5.75;;;;;;;;4951829;28;46875;-66
2022/06/16 09:54:05;;;;;;;;;6.50;5.00;;;;;;;;4969558;28;45769;-66
2022/06/16 09:56:37;;;;;;;;;3.75;3.75;;;;;;;;4972107;28;45471;-65
2022/06/16 09:59:10;;;;;;;;;5.00;5.00;;;;;;;;4971221;28;45517;-66
2022/06/16 10:01:38;;;;;;;;;5.25;4.25;;;;;;;;4970997;28;46497;-65
2022/06/16 10:04:05;;;;;;;;;5.25;4.75;;;;;;;;4972215;28;46197;-66
2022/06/16 10:06:51;;;;;;;;;7.00;5.75;;;;;;;;4971585;28;45760;-65
2022/06/16 10:09:23;;;;;;;;;5.00;5.00;;;;;;;;4954760;28;45583;-65
2022/06/16 10:11:51;;;;;;;;;4.75;3.25;;;;;;;;4975171;28;46855;-66
2022/06/16 10:14:16;;;;;;;;;4.00;4.00;;;;;;;;4974491;28;45647;-66
2022/06/16 10:16:48;;;;;;;;;5.00;4.75;;;;;;;;4971284;28;45471;-66
2022/06/16 10:19:14;;;;;;;;;5.00;5.00;;;;;;;;4966098;28;46051;-66
2022/06/16 10:21:39;;;;;;;;;4.00;4.00;;;;;;;;4955785;28;47256;-66
2022/06/16 10:24:05;;;;;;;;;3.75;3.75;;;;;;;;4969353;28;45620;-66
2022/06/16 10:26:30;;;;;;;;;5.00;5.00;;;;;;;;5004693;28;45529;-65
2022/06/16 10:29:07;;;;;;;;;6.00;5.50;;;;;;;;4971147;28;45551;-65
2022/06/16 10:31:34;;;;;;;;;5.00;5.00;;;;;;;;4972603;28;46473;-65
2022/06/16 10:34:01;;;;;;;;;2.75;2.75;;;;;;;;5004050;28;45785;-66
2022/06/16 10:36:27;;;;;;;;;3.25;3.25;;;;;;;;4972953;28;45483;-66
2022/06/16 10:39:07;;;;;;;;;6.75;5.75;;;;;;;;4973219;28;45347;-66
2022/06/16 10:41:35;;;;;;;;;5.00;4.50;;;;;;;;5004581;28;47403;-67
2022/06/16 10:44:02;;;;;;;;;4.00;4.00;;;;;;;;4972753;28;45581;-66
2022/06/16 10:46:31;;;;;;;;;4.50;4.50;;;;;;;;4972765;28;45625;-66
2022/06/16 10:49:00;;;;;;;;;4.25;4.25;;;;;;;;5004415;28;45595;-66
2022/06/16 10:51:27;;;;;;;;;5.00;5.00;;;;;;;;4972462;28;46036;-65
2022/06/16 10:54:02;;;;;;;;;5.50;4.75;;;;;;;;4971362;28;45419;-66
2022/06/16 10:56:27;;;;;;;;;3.75;3.75;;;;;;;;4972956;28;45690;-66
2022/06/16 10:58:59;;;;;;;;;6.00;5.00;;;;;;;;4972393;28;45548;-67
2022/06/16 11:01:35;;;;;;;;;5.75;5.75;;;;;;;;4972312;28;45682;-65
2022/06/16 11:04:11;;;;;;;;;4.50;4.25;;;;;;;;5003673;28;45936;-66
2022/06/16 11:06:38;;;;;;;;;5.00;5.00;;;;;;;;4972125;28;45474;-66
2022/06/16 11:09:05;;;;;;;;;8.50;6.75;;;;;;;;4972399;28;45383;-66
2022/06/16 11:11:39;;;;;;;;;5.00;5.00;;;;;;;;4972608;28;45453;-65
2022/06/16 11:14:06;;;;;;;;;5.50;5.25;;;;;;;;4971973;28;45747;-67
2022/06/16 11:16:37;;;;;;;;;5.00;4.00;;;;;;;;4969741;28;45654;-66
2022/06/16 11:19:07;;;;;;;;;4.75;4.75;;;;;;;;4972074;28;45534;-66
2022/06/16 11:21:33;;;;;;;;;7.00;7.00;;;;;;;;4972011;28;46475;-67
2022/06/16 11:24:01;;;;;;;;;6.00;6.00;;;;;;;;4971771;28;45527;-65
2022/06/16 11:26:28;;;;;;;;;6.00;6.00;;;;;;;;5000017;28;45800;-65
2022/06/16 11:28:56;;;;;;;;;4.00;4.00;;;;;;;;4968592;28;45607;-65
2022/06/16 11:31:24;;;;;;;;;8.00;5.75;;;;;;;;4971299;28;47345;-66
2022/06/16 11:34:07;;;;;;;;;7.00;7.00;;;;;;;;4971414;28;45570;-66
2022/06/16 11:36:47;;;;;;;;;5.25;5.25;;;;;;;;4971834;28;45581;-65
2022/06/16 11:39:18;;;;;;;;;4.75;4.75;;;;;;;;4970355;28;45487;-67
2022/06/16 11:41:46;;;;;;;;;6.00;6.00;;;;;;;;4971959;28;46758;-66
2022/06/16 11:44:28;;;;;;;;;3.50;3.00;;;;;;;;4971391;28;45600;-65
2022/06/16 11:47:04;;;;;;;;;6.75;6.75;;;;;;;;4970118;28;45911;-65
2022/06/16 11:49:29;;;;;;;;;5.75;5.25;;;;;;;;4971607;28;45621;-67
2022/06/16 11:51:54;;;;;;;;;6.50;6.50;;;;;;;;5002865;28;47874;-67
2022/06/16 11:54:30;;;;;;;;;6.25;6.25;;;;;;;;4971282;28;45422;-66
2022/06/16 11:57:10;;;;;;;;;5.00;4.00;;;;;;;;4972095;28;46156;-66
2022/06/16 11:59:41;;;;;;;;;7.75;6.25;;;;;;;;4970230;28;45521;-66
2022/06/16 12:02:06;;;;;;;;;9.00;6.25;;;;;;;;4971193;28;46433;-66
2022/06/16 12:04:38;;;;;;;;;7.25;7.25;;;;;;;;4971515;28;45715;-65
2022/06/16 12:07:29;;;;;;;;;4.75;4.75;;;;;;;;4971320;28;45494;-65
2022/06/16 12:10:10;;;;;;;;;8.00;8.00;;;;;;;;4971356;28;45756;-66
2022/06/16 12:12:40;;;;;;;;;6.00;6.00;;;;;;;;4957470;28;46584;-65
2022/06/16 12:15:28;;;;;;;;;5.25;5.25;;;;;;;;4971446;28;45597;-66
2022/06/16 12:17:53;;;;;;;;;8.00;8.00;;;;;;;;4971525;28;45593;-65
2022/06/16 12:20:42;;;;;;;;;7.00;7.00;;;;;;;;4970887;28;45742;-66
2022/06/16 12:23:17;;;;;;;;;6.50;6.50;;;;;;;;4970459;28;45620;-65
2022/06/16 12:26:01;;;;;;;;;5.75;5.75;;;;;;;;4969451;28;45457;-66
2022/06/16 12:28:38;;;;;;;;;8.00;6.75;;;;;;;;4970918;28;45411;-65
2022/06/16 12:31:11;;;;;;;;;4.25;4.25;;;;;;;;4971020;28;45743;-66
2022/06/16 12:33:50;;;;;;;;;6.25;6.25;;;;;;;;4970947;28;46049;-65
2022/06/16 12:36:20;;;;;;;;;7.50;6.25;;;;;;;;4966986;28;45682;-66
2022/06/16 12:38:47;;;;;;;;;7.50;7.00;;;;;;;;4972438;28;45587;-67
2022/06/16 12:41:17;;;;;;;;;7.00;7.00;;;;;;;;4981544;28;45423;-67
2022/06/16 12:43:56;;;;;;;;;8.00;6.25;;;;;;;;4978159;28;46846;-65
2022/06/16 12:46:23;;;;;;;;;7.25;7.25;;;;;;;;4979608;28;45464;-67
2022/06/16 12:48:48;;;;;;;;;6.00;6.00;;;;;;;;4982777;28;45443;-66
2022/06/16 12:51:15;;;;;;;;;6.00;6.00;;;;;;;;4975836;28;45318;-67
2022/06/16 12:53:51;;;;;;;;;6.25;5.00;;;;;;;;5017774;28;47646;-67
2022/06/16 12:56:23;;;;;;;;;6.50;6.50;;;;;;;;4974451;28;45641;-65
2022/06/16 12:58:51;;;;;;;;;5.25;4.50;;;;;;;;4974599;28;45587;-66
2022/06/16 13:01:17;;;;;;;;;5.00;4.25;;;;;;;;4980139;28;46063;-67
2022/06/16 13:04:02;;;;;;;;;5.25;5.00;;;;;;;;4977084;28;47480;-67
2022/06/16 13:06:28;;;;;;;;;3.50;3.50;;;;;;;;4981801;28;45431;-67
2022/06/16 13:08:56;;;;;;;;;3.75;3.75;;;;;;;;4978933;28;45521;-66
2022/06/16 13:11:26;;;;;;;;;3.00;3.00;;;;;;;;4982836;28;46160;-65
2022/06/16 13:13:55;;;;;;;;;4.00;4.00;;;;;;;;4977072;28;47627;-66
2022/06/16 13:16:23;;;;;;;;;5.00;5.00;;;;;;;;4977751;28;45479;-66
2022/06/16 13:19:06;;;;;;;;;4.75;4.75;;;;;;;;4978323;28;46038;-67
2022/06/16 13:21:34;;;;;;;;;5.00;5.00;;;;;;;;4966245;28;45658;-68
2022/06/16 13:24:02;;;;;;;;;5.00;5.00;;;;;;;;4985317;28;45799;-67
2022/06/16 13:26:30;;;;;;;;;7.00;4.75;;;;;;;;4975862;28;45573;-66
2022/06/16 13:29:01;;;;;;;;;4.50;3.00;;;;;;;;4982305;28;45509;-66
2022/06/16 13:31:46;;;;;;;;;3.50;3.50;;;;;;;;4979556;28;45527;-65
2022/06/16 13:34:41;;;;;;;;;4.25;4.25;;;;;;;;4977827;28;46529;-66
2022/06/16 13:37:06;;;;;;;;;5.25;4.75;;;;;;;;4964468;28;45572;-66
2022/06/16 13:39:50;;;;;;;;;3.75;3.75;;;;;;;;5008975;28;45633;-66
2022/06/16 13:42:17;;;;;;;;;4.25;4.25;;;;;;;;4987109;28;45653;-67
2022/06/16 13:45:18;;;;;;;;;4.00;4.00;;;;;;;;4981377;28;45520;-64
2022/06/16 13:48:08;;;;;;;;;5.75;5.00;;;;;;;;4987652;28;45530;-66
2022/06/16 13:50:42;;;;;;;;;5.00;5.00;;;;;;;;4968762;28;46461;-66
2022/06/16 13:53:08;;;;;;;;;4.00;4.00;;;;;;;;4986722;28;45520;-66
2022/06/16 13:55:36;;;;;;;;;4.25;3.75;;;;;;;;4983002;28;45425;-66
2022/06/16 13:58:16;;;;;;;;;6.00;5.50;;;;;;;;4986238;28;45703;-66
2022/06/16 14:00:42;;;;;;;;;5.00;5.00;;;;;;;;5020029;28;45645;-66
2022/06/16 14:03:16;;;;;;;;;3.50;3.50;;;;;;;;4983362;28;45430;-65
2022/06/16 14:05:48;;;;;;;;;5.25;5.25;;;;;;;;4991094;28;46635;-66
2022/06/16 14:08:14;;;;;;;;;7.00;5.50;;;;;;;;4980898;28;45691;-65
2022/06/16 14:10:48;;;;;;;;;5.25;4.00;;;;;;;;4986613;28;45526;-66
2022/06/16 14:13:13;;;;;;;;;4.00;4.00;;;;;;;;4986127;28;45418;-65
2022/06/16 14:15:51;;;;;;;;;6.50;4.75;;;;;;;;5015110;28;47568;-66
2022/06/16 14:18:21;;;;;;;;;5.75;5.75;;;;;;;;5019910;28;46478;-66
2022/06/16 14:20:49;;;;;;;;;4.00;4.00;;;;;;;;4983609;28;45553;-68
2022/06/16 14:23:20;;;;;;;;;4.50;4.50;;;;;;;;4987729;28;45387;-66
2022/06/16 14:25:47;;;;;;;;;4.00;4.00;;;;;;;;4980977;28;45819;-65
2022/06/16 14:28:15;;;;;;;;;4.75;3.75;;;;;;;;5018697;28;46373;-65
2022/06/16 14:30:46;;;;;;;;;6.25;4.75;;;;;;;;4987796;28;45508;-65
2022/06/16 14:33:26;;;;;;;;;3.75;3.75;;;;;;;;4982108;28;45757;-65
2022/06/16 14:35:54;;;;;;;;;4.00;4.00;;;;;;;;4992619;28;45796;-66
2022/06/16 14:38:25;;;;;;;;;8.50;5.25;;;;;;;;4980453;28;45508;-66
2022/06/16 14:40:53;;;;;;;;;4.75;4.75;;;;;;;;4987522;28;45682;-65
2022/06/16 14:43:31;;;;;;;;;4.00;4.00;;;;;;;;4984451;28;45394;-66
2022/06/16 14:46:10;;;;;;;;;4.75;4.75;;;;;;;;4984963;28;45917;-67
2022/06/16 14:48:38;;;;;;;;;3.75;3.75;;;;;;;;4987382;28;45565;-66
2022/06/16 14:51:08;;;;;;;;;5.00;5.00;;;;;;;;4982133;28;45751;-66
2022/06/16 14:53:39;;;;;;;;;6.25;5.00;;;;;;;;4988215;28;45559;-66
2022/06/16 14:56:08;;;;;;;;;5.75;4.75;;;;;;;;4979960;28;46623;-66
2022/06/16 14:58:46;;;;;;;;;5.00;5.00;;;;;;;;4987487;28;45486;-67
2022/06/16 15:01:12;;;;;;;;;6.75;4.50;;;;;;;;4983706;28;45442;-66